Stony Plain, Canada
Current Conditions -  °F | °C
As of 10:00 AM on Wednesday 26 Nov 2014 (Local Time) from CWSE Reporting Station
Moderate Fog Moderate Fog  
Wind Chill: 16°   Ceiling: 11800
Heat Index: 16°   Visibility: 6mi
Dew Point: 13°   Wind: 0mph
Humidity: 90%   Direction: NA
Pressure: 30.14"   Gusts: NA
Location:  53.53°N, 114.01°W
Report Text: CWSE 261700Z COR 00000KT 6SM FG FEW020 SCT039 OVC118 M09/M10 A3014 RMK SLP272 LAST OBS/NEXT 262000Z T10891103 WSI/SWOB
Loading
Personal Weather Stations






























Interactive Weather Map New forecast layout! Learn more

10-Day Weather Forecast

Advertisements
Track Severe Weather on mobile